Архив погоды во Владикавказе

Метеограмма Владикавказ
Вторник, 14 Августа
Время местн. Темп Ветер Видим Явления Облачность нижн/средн/верх Атм. давл. Влжн Точка росы ВНГО R Сост. почвы Tg s
Напр Скр Прв ур.ст ур.м изм
15:00 +25.4° В 1 - 20 км - переменная облачность 702 760 -0.5 37% +9.6° 1 км - - - -
12:00 +24.9° В 1 - 20 км - переменная облачность 702 761 -0.5 39% +9.9° 1 км - - - -
09:00 +23° В,Ю-В 1 - 1 км - переменная облачность 703 762 -0.1 50% +12° 1 км - - - -
06:00 +16° Ю 1 - 20 км - переменная облачность 703 763 +0.3 79% +12.3° - - Влажная (без луж) - -
03:00 +15.7° Ю 1 - 10 км - облачно 703 763 +0.2 81% +12.5° 1 км - - - -
00:00 +16.2° штиль 0 - 10 км - облачно 702 763 -0.2 83% +13.3° 1 км - - - -
Понедельник, 13 Августа
Время местн. Темп Ветер Видим Явления Облачность нижн/средн/верх Атм. давл. Влжн Точка росы ВНГО R Сост. почвы Tg s
Напр Скр Прв ур.ст ур.м изм
21:00 +17.3° штиль 0 - 10 км - облачно 703 762 +0.8 81% +14.1° 1 км - - - -
18:00 +20.3° штиль 0 - 10 км - облачно 702 761 +0.1 66% +13.7° 1 км - - - -
15:00 +19.8° Ю-В 2 - 10 км - облачно 702 761 -0.2 64% +12.9° 1 км - - - -
12:00 +19.2° З,С-З 2 - 10 км - облачно 702 761 -0.1 70% +13.5° 1 км - - - -
09:00 +18° З,С-З 2 - 10 км - облачно с прояснениями 702 762 +0.7 76% +13.7° 1 км - - - -
06:00 +14.3° штиль 0 - 20 км - преимущественно облачно 701 762 +0.3 89% +12.5° 1 км - Влажная (без луж) - -
03:00 +13.7° штиль 0 - 10 км - облачно с прояснениями 701 762 -0.1 91% +12.2° 1 км - - - -
00:00 +13.9° штиль 0 - 10 км - облачно с прояснениями 701 762 -0.7 88% +11.9° 1 км - - - -
Воскресенье, 12 Августа
Время местн. Темп Ветер Видим Явления Облачность нижн/средн/верх Атм. давл. Влжн Точка росы ВНГО R Сост. почвы Tg s
Напр Скр Прв ур.ст ур.м изм
21:00 +14.5° В,Ю-В 1 - 10 км - облачно с прояснениями 702 762 +0.4 87% +12.4° 1 км - - - -
18:00 +15.7° Ю 1 - 10 км - облачно 702 762 -0.1 80% +12.2° 600 м - - - -
15:00 +15.3° С-З 3 - 10 км небо без изменений {ливневые осадки} облачно 702 762 -0.1 78% +11.4° 600 м - - - -
12:00 +16.4° С-З 1 - 10 км слабый ливневый дождь преимущественно облачно 702 762 +0.2 82% +13.3° 1 км - - - -
09:00 +17.3° З,С-З 1 - 20 км небо без изменений {ливневые осадки} облачно с прояснениями 702 761 -0.6 70% +11.8° 1 км - - - -
06:00 +13.2° штиль 0 - 10 км небо без изменений {ливневые осадки} облачно 702 763 -1 90% +11.6° 1 км - Влажная (без луж) - -
03:00 +13.5° штиль 0 - 10 км - облачно 703 764 -0.8 85% +11° 1 км - - - -
00:00 +13.3° Ю,Ю-В 1 - 10 км - облачно 704 765 -1.1 88% +11.4° 1 км - - - -
Суббота, 11 Августа
Время местн. Темп Ветер Видим Явления Облачность нижн/средн/верх Атм. давл. Влжн Точка росы ВНГО R Сост. почвы Tg s
Напр Скр Прв ур.ст ур.м изм
21:00 +13.1° Ю,Ю-В 1 - 10 км - облачно с прояснениями 705 766 -0.1 87% +11° 1 км - - - -
18:00 +15.5° З 1 - 10 км - облачно 705 765 -0.6 74% +10.8° 1 км - - - -
15:00 +16.4° Ю-З 1 - 10 км - облачно 706 766 -0.8 68% +10.4° 1 км - - - -
12:00 +15.9° В,Ю-В 1 - 10 км - облачно 706 767 -0.3 65% +9.4° 1 км - - - -